Whitlash, Montana
Current Conditions -  °F | °C
As of 11:56 AM on Thursday 23 Oct 2014 (Local Time) from KCTB Reporting Station
Clear Clear  
Wind Chill: 59°   Ceiling: Unl
Heat Index: 59°   Visibility: 10mi
Dew Point: 39°   Wind: 7mph
Humidity: 48%   Direction: 220°SW
Pressure: 29.77"   Gusts: NA
Location:  48.91°N, 111.25°W
Report Text: KCTB 231756Z AUTO 22006KT 10SM CLR 15/04 A2977 RMK AO2 SLP072 T01500039 10150 20094 58002
Loading
Personal Weather Stations






























Interactive Weather Map
Tropical Storm Tracking
New forecast layout! Learn more

10-Day Weather Forecast

Advertisements
Track Severe Weather on mobile